sensor_id;sensor_type;location;lat;lon;timestamp;temperature;humidity
16402;DHT22;8310;44.626;11.176;2023-04-24T00:01:18;18.60;53.00
16402;DHT22;8310;44.626;11.176;2023-04-24T00:03:46;18.60;53.00
16402;DHT22;8310;44.626;11.176;2023-04-24T00:06:14;18.60;53.00
16402;DHT22;8310;44.626;11.176;2023-04-24T00:08:42;18.60;53.00
16402;DHT22;8310;44.626;11.176;2023-04-24T00:11:10;18.60;53.00
16402;DHT22;8310;44.626;11.176;2023-04-24T00:13:37;18.60;53.00
16402;DHT22;8310;44.626;11.176;2023-04-24T00:16:05;18.60;53.00
16402;DHT22;8310;44.626;11.176;2023-04-24T00:18:32;18.60;53.00
16402;DHT22;8310;44.626;11.176;2023-04-24T00:20:59;18.60;53.00
16402;DHT22;8310;44.626;11.176;2023-04-24T00:23:28;18.60;53.00
16402;DHT22;8310;44.626;11.176;2023-04-24T00:25:56;18.60;53.00
16402;DHT22;8310;44.626;11.176;2023-04-24T00:28:23;18.60;53.00
16402;DHT22;8310;44.626;11.176;2023-04-24T00:30:50;18.60;53.00
16402;DHT22;8310;44.626;11.176;2023-04-24T00:33:18;18.60;53.00
16402;DHT22;8310;44.626;11.176;2023-04-24T00:35:46;18.60;53.00
16402;DHT22;8310;44.626;11.176;2023-04-24T00:38:13;18.60;53.00
16402;DHT22;8310;44.626;11.176;2023-04-24T00:40:42;18.60;53.00
16402;DHT22;8310;44.626;11.176;2023-04-24T00:43:09;18.60;53.10
16402;DHT22;8310;44.626;11.176;2023-04-24T00:45:36;18.60;53.10
16402;DHT22;8310;44.626;11.176;2023-04-24T00:48:04;18.60;53.10
16402;DHT22;8310;44.626;11.176;2023-04-24T00:50:31;18.60;53.10
16402;DHT22;8310;44.626;11.176;2023-04-24T00:52:58;18.60;53.10
16402;DHT22;8310;44.626;11.176;2023-04-24T00:55:25;18.70;53.20
16402;DHT22;8310;44.626;11.176;2023-04-24T00:57:54;18.60;53.10
16402;DHT22;8310;44.626;11.176;2023-04-24T01:00:22;18.60;53.10
16402;DHT22;8310;44.626;11.176;2023-04-24T01:02:49;18.60;53.10
16402;DHT22;8310;44.626;11.176;2023-04-24T01:05:17;18.60;53.10
16402;DHT22;8310;44.626;11.176;2023-04-24T01:07:45;18.60;53.10
16402;DHT22;8310;44.626;11.176;2023-04-24T01:10:14;18.60;53.70
16402;DHT22;8310;44.626;11.176;2023-04-24T01:12:42;18.60;53.10
16402;DHT22;8310;44.626;11.176;2023-04-24T01:15:12;18.60;53.20
16402;DHT22;8310;44.626;11.176;2023-04-24T01:17:40;18.50;53.10
16402;DHT22;8310;44.626;11.176;2023-04-24T01:20:07;18.50;53.10
16402;DHT22;8310;44.626;11.176;2023-04-24T01:22:36;18.50;53.10
16402;DHT22;8310;44.626;11.176;2023-04-24T01:25:04;18.50;53.10
16402;DHT22;8310;44.626;11.176;2023-04-24T01:27:31;18.50;53.20
16402;DHT22;8310;44.626;11.176;2023-04-24T01:29:59;18.50;53.20
16402;DHT22;8310;44.626;11.176;2023-04-24T01:32:26;18.50;53.20
16402;DHT22;8310;44.626;11.176;2023-04-24T01:34:53;18.50;53.80
16402;DHT22;8310;44.626;11.176;2023-04-24T01:37:21;18.50;53.20
16402;DHT22;8310;44.626;11.176;2023-04-24T01:39:50;18.50;53.20
16402;DHT22;8310;44.626;11.176;2023-04-24T01:42:17;18.50;53.30
16402;DHT22;8310;44.626;11.176;2023-04-24T01:44:44;18.50;53.20
16402;DHT22;8310;44.626;11.176;2023-04-24T01:47:12;18.50;53.20
16402;DHT22;8310;44.626;11.176;2023-04-24T01:49:39;18.40;53.20
16402;DHT22;8310;44.626;11.176;2023-04-24T01:52:07;18.40;53.20
16402;DHT22;8310;44.626;11.176;2023-04-24T01:54:34;18.40;53.20
16402;DHT22;8310;44.626;11.176;2023-04-24T01:57:03;18.40;53.70
16402;DHT22;8310;44.626;11.176;2023-04-24T01:59:30;18.30;53.10
16402;DHT22;8310;44.626;11.176;2023-04-24T02:02:00;18.30;53.10
16402;DHT22;8310;44.626;11.176;2023-04-24T02:04:27;18.20;53.10
16402;DHT22;8310;44.626;11.176;2023-04-24T02:06:54;18.20;53.20
16402;DHT22;8310;44.626;11.176;2023-04-24T02:09:22;18.20;53.20
16402;DHT22;8310;44.626;11.176;2023-04-24T02:11:49;18.20;53.20
16402;DHT22;8310;44.626;11.176;2023-04-24T02:14:18;18.20;53.20
16402;DHT22;8310;44.626;11.176;2023-04-24T02:16:45;18.20;53.30
16402;DHT22;8310;44.626;11.176;2023-04-24T02:19:13;18.20;53.30
16402;DHT22;8310;44.626;11.176;2023-04-24T02:21:40;18.10;53.20
16402;DHT22;8310;44.626;11.176;2023-04-24T02:24:08;18.10;53.20
16402;DHT22;8310;44.626;11.176;2023-04-24T02:26:35;18.10;53.20
16402;DHT22;8310;44.626;11.176;2023-04-24T02:29:02;18.10;53.30
16402;DHT22;8310;44.626;11.176;2023-04-24T02:31:31;18.10;53.30
16402;DHT22;8310;44.626;11.176;2023-04-24T02:33:59;18.00;53.30
16402;DHT22;8310;44.626;11.176;2023-04-24T02:36:26;18.10;53.40
16402;DHT22;8310;44.626;11.176;2023-04-24T02:38:53;18.10;53.40
16402;DHT22;8310;44.626;11.176;2023-04-24T02:41:21;18.10;53.40
16402;DHT22;8310;44.626;11.176;2023-04-24T02:43:49;18.10;53.40
16402;DHT22;8310;44.626;11.176;2023-04-24T02:46:15;18.10;53.40
16402;DHT22;8310;44.626;11.176;2023-04-24T02:48:44;18.10;53.40
16402;DHT22;8310;44.626;11.176;2023-04-24T02:51:12;18.10;53.40
16402;DHT22;8310;44.626;11.176;2023-04-24T02:53:39;18.10;53.40
16402;DHT22;8310;44.626;11.176;2023-04-24T02:56:06;18.10;53.40
16402;DHT22;8310;44.626;11.176;2023-04-24T02:58:34;18.10;53.40
16402;DHT22;8310;44.626;11.176;2023-04-24T03:01:01;18.10;53.40
16402;DHT22;8310;44.626;11.176;2023-04-24T03:03:29;18.00;53.40
16402;DHT22;8310;44.626;11.176;2023-04-24T03:05:57;18.00;53.40
16402;DHT22;8310;44.626;11.176;2023-04-24T03:08:25;18.00;53.50
16402;DHT22;8310;44.626;11.176;2023-04-24T03:10:52;18.00;53.50
16402;DHT22;8310;44.626;11.176;2023-04-24T03:13:20;18.00;53.50
16402;DHT22;8310;44.626;11.176;2023-04-24T03:15:47;18.00;53.50
16402;DHT22;8310;44.626;11.176;2023-04-24T03:18:14;18.00;53.50
16402;DHT22;8310;44.626;11.176;2023-04-24T03:20:41;18.00;53.50
16402;DHT22;8310;44.626;11.176;2023-04-24T03:23:11;17.90;53.40
16402;DHT22;8310;44.626;11.176;2023-04-24T03:25:38;17.90;53.50
16402;DHT22;8310;44.626;11.176;2023-04-24T03:28:06;17.90;53.50
16402;DHT22;8310;44.626;11.176;2023-04-24T03:30:33;17.90;53.50
16402;DHT22;8310;44.626;11.176;2023-04-24T03:33:01;17.80;53.40
16402;DHT22;8310;44.626;11.176;2023-04-24T03:35:28;17.80;53.40
16402;DHT22;8310;44.626;11.176;2023-04-24T03:37:55;17.80;53.50
16402;DHT22;8310;44.626;11.176;2023-04-24T03:40:24;17.80;53.50
16402;DHT22;8310;44.626;11.176;2023-04-24T03:42:51;17.80;53.50
16402;DHT22;8310;44.626;11.176;2023-04-24T03:45:18;17.70;55.00
16402;DHT22;8310;44.626;11.176;2023-04-24T03:47:46;17.60;55.10
16402;DHT22;8310;44.626;11.176;2023-04-24T03:50:13;17.40;53.90
16402;DHT22;8310;44.626;11.176;2023-04-24T03:52:41;17.30;53.60
16402;DHT22;8310;44.626;11.176;2023-04-24T03:55:09;17.20;53.80
16402;DHT22;8310;44.626;11.176;2023-04-24T03:57:40;17.20;53.60
16402;DHT22;8310;44.626;11.176;2023-04-24T04:00:08;17.10;53.50
16402;DHT22;8310;44.626;11.176;2023-04-24T04:02:35;17.10;53.50
16402;DHT22;8310;44.626;11.176;2023-04-24T04:05:03;17.00;53.50
16402;DHT22;8310;44.626;11.176;2023-04-24T04:07:30;16.90;53.50
16402;DHT22;8310;44.626;11.176;2023-04-24T04:09:57;16.90;53.50
16402;DHT22;8310;44.626;11.176;2023-04-24T04:12:25;16.90;53.50
16402;DHT22;8310;44.626;11.176;2023-04-24T04:14:54;16.90;53.60
16402;DHT22;8310;44.626;11.176;2023-04-24T04:17:21;16.90;53.60
16402;DHT22;8310;44.626;11.176;2023-04-24T04:19:48;16.90;53.60
16402;DHT22;8310;44.626;11.176;2023-04-24T04:22:16;16.90;54.50
16402;DHT22;8310;44.626;11.176;2023-04-24T04:24:43;16.80;53.90
16402;DHT22;8310;44.626;11.176;2023-04-24T04:27:11;16.80;53.70
16402;DHT22;8310;44.626;11.176;2023-04-24T04:29:39;16.80;53.70
16402;DHT22;8310;44.626;11.176;2023-04-24T04:32:08;16.80;53.70
16402;DHT22;8310;44.626;11.176;2023-04-24T04:34:36;16.70;53.70
16402;DHT22;8310;44.626;11.176;2023-04-24T04:37:05;16.70;53.60
16402;DHT22;8310;44.626;11.176;2023-04-24T04:39:32;16.70;53.60
16402;DHT22;8310;44.626;11.176;2023-04-24T04:42:00;16.70;53.80
16402;DHT22;8310;44.626;11.176;2023-04-24T04:44:27;16.60;53.70
16402;DHT22;8310;44.626;11.176;2023-04-24T04:46:56;16.60;53.70
16402;DHT22;8310;44.626;11.176;2023-04-24T04:49:25;16.60;53.60
16402;DHT22;8310;44.626;11.176;2023-04-24T04:51:53;16.50;53.60
16402;DHT22;8310;44.626;11.176;2023-04-24T04:54:20;16.50;53.60
16402;DHT22;8310;44.626;11.176;2023-04-24T04:56:49;16.50;54.60
16402;DHT22;8310;44.626;11.176;2023-04-24T04:59:16;16.50;55.20
16402;DHT22;8310;44.626;11.176;2023-04-24T05:01:44;16.40;54.70
16402;DHT22;8310;44.626;11.176;2023-04-24T05:04:11;16.30;55.70
16402;DHT22;8310;44.626;11.176;2023-04-24T05:06:40;16.30;54.40
16402;DHT22;8310;44.626;11.176;2023-04-24T05:09:07;16.30;54.20
16402;DHT22;8310;44.626;11.176;2023-04-24T05:11:35;16.30;54.20
16402;DHT22;8310;44.626;11.176;2023-04-24T05:14:02;16.30;54.20
16402;DHT22;8310;44.626;11.176;2023-04-24T05:16:29;16.40;54.20
16402;DHT22;8310;44.626;11.176;2023-04-24T05:18:57;16.40;54.20
16402;DHT22;8310;44.626;11.176;2023-04-24T05:21:25;16.40;54.20
16402;DHT22;8310;44.626;11.176;2023-04-24T05:23:53;16.50;54.20
16402;DHT22;8310;44.626;11.176;2023-04-24T05:26:20;16.50;54.20
16402;DHT22;8310;44.626;11.176;2023-04-24T05:28:48;16.50;54.20
16402;DHT22;8310;44.626;11.176;2023-04-24T05:31:15;16.50;54.20
16402;DHT22;8310;44.626;11.176;2023-04-24T05:33:43;16.50;54.20
16402;DHT22;8310;44.626;11.176;2023-04-24T05:36:11;16.50;54.30
16402;DHT22;8310;44.626;11.176;2023-04-24T05:38:38;16.60;54.40
16402;DHT22;8310;44.626;11.176;2023-04-24T05:41:07;16.60;54.80
16402;DHT22;8310;44.626;11.176;2023-04-24T05:43:35;16.50;54.60
16402;DHT22;8310;44.626;11.176;2023-04-24T05:46:03;16.50;54.80
16402;DHT22;8310;44.626;11.176;2023-04-24T05:48:30;16.50;54.60
16402;DHT22;8310;44.626;11.176;2023-04-24T05:50:58;16.60;54.60
16402;DHT22;8310;44.626;11.176;2023-04-24T05:53:25;16.60;55.00
16402;DHT22;8310;44.626;11.176;2023-04-24T05:55:53;16.60;54.60
16402;DHT22;8310;44.626;11.176;2023-04-24T05:58:22;16.60;55.10
16402;DHT22;8310;44.626;11.176;2023-04-24T06:00:49;16.60;54.80
16402;DHT22;8310;44.626;11.176;2023-04-24T06:03:17;16.70;54.80
16402;DHT22;8310;44.626;11.176;2023-04-24T06:05:44;16.70;54.80
16402;DHT22;8310;44.626;11.176;2023-04-24T06:08:13;16.70;54.80
16402;DHT22;8310;44.626;11.176;2023-04-24T06:10:40;16.80;54.80
16402;DHT22;8310;44.626;11.176;2023-04-24T06:13:07;16.80;54.70
16402;DHT22;8310;44.626;11.176;2023-04-24T06:15:36;16.80;54.70
16402;DHT22;8310;44.626;11.176;2023-04-24T06:18:03;16.80;54.60
16402;DHT22;8310;44.626;11.176;2023-04-24T06:20:31;16.80;54.60
16402;DHT22;8310;44.626;11.176;2023-04-24T06:22:58;16.80;54.60
16402;DHT22;8310;44.626;11.176;2023-04-24T06:25:25;16.80;54.80
16402;DHT22;8310;44.626;11.176;2023-04-24T06:27:53;16.80;54.60
16402;DHT22;8310;44.626;11.176;2023-04-24T06:30:21;16.80;54.60
16402;DHT22;8310;44.626;11.176;2023-04-24T06:32:50;16.70;54.80
16402;DHT22;8310;44.626;11.176;2023-04-24T06:35:17;16.70;55.00
16402;DHT22;8310;44.626;11.176;2023-04-24T06:37:45;16.70;55.40
16402;DHT22;8310;44.626;11.176;2023-04-24T06:40:13;16.70;55.60
16402;DHT22;8310;44.626;11.176;2023-04-24T06:42:40;16.70;56.10
16402;DHT22;8310;44.626;11.176;2023-04-24T06:45:08;16.60;55.80
16402;DHT22;8310;44.626;11.176;2023-04-24T06:47:35;16.60;55.90
16402;DHT22;8310;44.626;11.176;2023-04-24T06:50:04;16.60;56.20
16402;DHT22;8310;44.626;11.176;2023-04-24T06:52:33;16.60;56.50
16402;DHT22;8310;44.626;11.176;2023-04-24T06:55:00;16.60;56.40
16402;DHT22;8310;44.626;11.176;2023-04-24T06:57:28;16.70;57.00
16402;DHT22;8310;44.626;11.176;2023-04-24T06:59:55;16.80;57.90
16402;DHT22;8310;44.626;11.176;2023-04-24T07:02:23;16.80;57.80
16402;DHT22;8310;44.626;11.176;2023-04-24T07:04:50;16.90;58.30
16402;DHT22;8310;44.626;11.176;2023-04-24T07:07:19;16.90;57.40
16402;DHT22;8310;44.626;11.176;2023-04-24T07:09:47;17.00;56.70
16402;DHT22;8310;44.626;11.176;2023-04-24T07:12:15;17.00;56.80
16402;DHT22;8310;44.626;11.176;2023-04-24T07:14:42;17.00;57.30
16402;DHT22;8310;44.626;11.176;2023-04-24T07:17:10;17.10;57.00
16402;DHT22;8310;44.626;11.176;2023-04-24T07:19:38;17.10;57.60
16402;DHT22;8310;44.626;11.176;2023-04-24T07:22:06;17.10;57.00
16402;DHT22;8310;44.626;11.176;2023-04-24T07:24:34;17.10;60.10
16402;DHT22;8310;44.626;11.176;2023-04-24T07:27:02;17.10;60.00
16402;DHT22;8310;44.626;11.176;2023-04-24T07:29:29;17.20;59.50
16402;DHT22;8310;44.626;11.176;2023-04-24T07:31:57;17.30;58.50
16402;DHT22;8310;44.626;11.176;2023-04-24T07:34:25;17.40;59.80
16402;DHT22;8310;44.626;11.176;2023-04-24T07:36:53;17.50;59.80
16402;DHT22;8310;44.626;11.176;2023-04-24T07:39:21;17.60;59.00
16402;DHT22;8310;44.626;11.176;2023-04-24T07:41:50;17.80;59.50
16402;DHT22;8310;44.626;11.176;2023-04-24T07:44:17;17.90;59.20
16402;DHT22;8310;44.626;11.176;2023-04-24T07:46:45;18.10;58.90
16402;DHT22;8310;44.626;11.176;2023-04-24T07:49:12;18.20;60.60
16402;DHT22;8310;44.626;11.176;2023-04-24T07:51:39;18.30;59.80
16402;DHT22;8310;44.626;11.176;2023-04-24T07:54:07;18.50;60.60
16402;DHT22;8310;44.626;11.176;2023-04-24T07:56:35;18.70;59.60
16402;DHT22;8310;44.626;11.176;2023-04-24T07:59:05;18.80;59.40
16402;DHT22;8310;44.626;11.176;2023-04-24T08:01:33;19.00;59.40
16402;DHT22;8310;44.626;11.176;2023-04-24T08:04:02;19.20;59.30
16402;DHT22;8310;44.626;11.176;2023-04-24T08:06:30;19.40;59.20
16402;DHT22;8310;44.626;11.176;2023-04-24T08:08:57;19.60;59.10
16402;DHT22;8310;44.626;11.176;2023-04-24T08:11:25;19.70;58.80
16402;DHT22;8310;44.626;11.176;2023-04-24T08:13:53;19.70;58.80
16402;DHT22;8310;44.626;11.176;2023-04-24T08:16:21;19.90;59.00
16402;DHT22;8310;44.626;11.176;2023-04-24T08:18:50;19.90;58.90
16402;DHT22;8310;44.626;11.176;2023-04-24T08:21:17;20.10;59.20
16402;DHT22;8310;44.626;11.176;2023-04-24T08:23:46;20.20;59.40
16402;DHT22;8310;44.626;11.176;2023-04-24T08:26:13;20.40;59.50
16402;DHT22;8310;44.626;11.176;2023-04-24T08:28:42;20.60;59.60
16402;DHT22;8310;44.626;11.176;2023-04-24T08:31:10;20.80;60.20
16402;DHT22;8310;44.626;11.176;2023-04-24T08:33:39;21.00;60.40
16402;DHT22;8310;44.626;11.176;2023-04-24T08:36:07;21.20;60.00
16402;DHT22;8310;44.626;11.176;2023-04-24T08:38:34;21.20;59.40
16402;DHT22;8310;44.626;11.176;2023-04-24T08:41:02;21.20;58.90
16402;DHT22;8310;44.626;11.176;2023-04-24T08:43:30;21.10;58.50
16402;DHT22;8310;44.626;11.176;2023-04-24T08:46:00;21.00;58.20
16402;DHT22;8310;44.626;11.176;2023-04-24T08:48:28;20.80;57.90
16402;DHT22;8310;44.626;11.176;2023-04-24T08:50:58;20.50;57.20
16402;DHT22;8310;44.626;11.176;2023-04-24T08:53:26;20.20;56.70
16402;DHT22;8310;44.626;11.176;2023-04-24T08:55:55;19.90;56.70
16402;DHT22;8310;44.626;11.176;2023-04-24T08:58:25;19.70;56.70
16402;DHT22;8310;44.626;11.176;2023-04-24T09:00:54;19.50;56.90
16402;DHT22;8310;44.626;11.176;2023-04-24T09:03:22;19.40;57.60
16402;DHT22;8310;44.626;11.176;2023-04-24T09:05:50;19.40;57.30
16402;DHT22;8310;44.626;11.176;2023-04-24T09:08:19;19.30;57.20
16402;DHT22;8310;44.626;11.176;2023-04-24T09:10:48;19.20;57.30
16402;DHT22;8310;44.626;11.176;2023-04-24T09:13:15;19.20;57.60
16402;DHT22;8310;44.626;11.176;2023-04-24T09:15:43;19.10;57.30
16402;DHT22;8310;44.626;11.176;2023-04-24T09:18:10;19.10;57.30
16402;DHT22;8310;44.626;11.176;2023-04-24T09:20:59;19.00;57.40
16402;DHT22;8310;44.626;11.176;2023-04-24T09:23:30;18.90;57.20
16402;DHT22;8310;44.626;11.176;2023-04-24T09:25:59;18.90;57.20
16402;DHT22;8310;44.626;11.176;2023-04-24T09:28:31;18.80;57.20
16402;DHT22;8310;44.626;11.176;2023-04-24T09:31:06;18.80;57.40
16402;DHT22;8310;44.626;11.176;2023-04-24T09:33:34;18.90;57.80
16402;DHT22;8310;44.626;11.176;2023-04-24T09:36:02;19.10;58.10
16402;DHT22;8310;44.626;11.176;2023-04-24T09:38:32;19.30;58.40
16402;DHT22;8310;44.626;11.176;2023-04-24T09:41:00;19.50;58.50
16402;DHT22;8310;44.626;11.176;2023-04-24T09:43:28;19.60;58.60
16402;DHT22;8310;44.626;11.176;2023-04-24T09:45:55;19.80;58.90
16402;DHT22;8310;44.626;11.176;2023-04-24T09:48:30;20.00;59.30
16402;DHT22;8310;44.626;11.176;2023-04-24T09:50:58;20.30;59.50
16402;DHT22;8310;44.626;11.176;2023-04-24T09:53:26;20.60;59.60
16402;DHT22;8310;44.626;11.176;2023-04-24T09:55:56;20.80;59.60
16402;DHT22;8310;44.626;11.176;2023-04-24T09:58:26;21.10;59.80
16402;DHT22;8310;44.626;11.176;2023-04-24T10:00:54;21.20;59.80
16402;DHT22;8310;44.626;11.176;2023-04-24T10:03:24;21.50;60.00
16402;DHT22;8310;44.626;11.176;2023-04-24T10:05:53;21.70;60.40
16402;DHT22;8310;44.626;11.176;2023-04-24T10:08:21;21.90;59.90
16402;DHT22;8310;44.626;11.176;2023-04-24T10:10:49;22.00;59.40
16402;DHT22;8310;44.626;11.176;2023-04-24T10:13:19;22.00;59.30
16402;DHT22;8310;44.626;11.176;2023-04-24T10:15:48;22.00;59.30
16402;DHT22;8310;44.626;11.176;2023-04-24T10:18:16;22.00;59.20
16402;DHT22;8310;44.626;11.176;2023-04-24T10:20:44;22.00;59.30
16402;DHT22;8310;44.626;11.176;2023-04-24T10:23:12;22.00;59.20
16402;DHT22;8310;44.626;11.176;2023-04-24T10:25:40;22.00;59.00
16402;DHT22;8310;44.626;11.176;2023-04-24T10:28:09;22.00;59.00
16402;DHT22;8310;44.626;11.176;2023-04-24T10:30:39;22.00;59.00
16402;DHT22;8310;44.626;11.176;2023-04-24T10:33:10;22.00;58.80
16402;DHT22;8310;44.626;11.176;2023-04-24T10:35:43;22.00;58.90
16402;DHT22;8310;44.626;11.176;2023-04-24T10:38:13;22.00;59.40
16402;DHT22;8310;44.626;11.176;2023-04-24T10:40:42;22.10;59.40
16402;DHT22;8310;44.626;11.176;2023-04-24T10:43:10;22.20;59.60
16402;DHT22;8310;44.626;11.176;2023-04-24T10:45:40;22.50;59.80
16402;DHT22;8310;44.626;11.176;2023-04-24T10:48:08;22.60;59.50
16402;DHT22;8310;44.626;11.176;2023-04-24T10:50:42;22.80;59.70
16402;DHT22;8310;44.626;11.176;2023-04-24T10:53:16;23.00;59.80
16402;DHT22;8310;44.626;11.176;2023-04-24T10:55:46;23.10;59.60
16402;DHT22;8310;44.626;11.176;2023-04-24T10:58:14;23.10;59.30
16402;DHT22;8310;44.626;11.176;2023-04-24T11:00:54;23.20;59.40
16402;DHT22;8310;44.626;11.176;2023-04-24T11:03:24;23.20;59.50
16402;DHT22;8310;44.626;11.176;2023-04-24T11:05:59;23.20;59.00
16402;DHT22;8310;44.626;11.176;2023-04-24T11:08:30;23.30;59.20
16402;DHT22;8310;44.626;11.176;2023-04-24T11:11:03;23.30;59.10
16402;DHT22;8310;44.626;11.176;2023-04-24T11:14:06;23.30;58.90
16402;DHT22;8310;44.626;11.176;2023-04-24T11:16:38;23.20;59.00
16402;DHT22;8310;44.626;11.176;2023-04-24T11:19:07;23.20;59.20
16402;DHT22;8310;44.626;11.176;2023-04-24T11:21:42;23.30;59.20
16402;DHT22;8310;44.626;11.176;2023-04-24T11:24:24;23.20;58.90
16402;DHT22;8310;44.626;11.176;2023-04-24T11:26:54;23.20;58.70
16402;DHT22;8310;44.626;11.176;2023-04-24T11:29:22;23.20;58.80
16402;DHT22;8310;44.626;11.176;2023-04-24T11:31:51;23.20;58.90
16402;DHT22;8310;44.626;11.176;2023-04-24T11:34:20;23.20;58.90
16402;DHT22;8310;44.626;11.176;2023-04-24T11:36:49;23.30;59.20
16402;DHT22;8310;44.626;11.176;2023-04-24T11:39:17;23.40;59.10
16402;DHT22;8310;44.626;11.176;2023-04-24T11:41:45;23.50;59.60
16402;DHT22;8310;44.626;11.176;2023-04-24T11:44:13;23.60;59.30
16402;DHT22;8310;44.626;11.176;2023-04-24T11:46:42;23.70;59.20
16402;DHT22;8310;44.626;11.176;2023-04-24T11:49:12;23.70;59.00
16402;DHT22;8310;44.626;11.176;2023-04-24T11:51:39;23.80;58.30
16402;DHT22;8310;44.626;11.176;2023-04-24T11:54:07;23.80;58.40
16402;DHT22;8310;44.626;11.176;2023-04-24T11:56:35;23.90;59.00
16402;DHT22;8310;44.626;11.176;2023-04-24T11:59:04;24.00;59.00
16402;DHT22;8310;44.626;11.176;2023-04-24T12:01:43;24.00;58.90
16402;DHT22;8310;44.626;11.176;2023-04-24T12:04:11;24.10;59.20
16402;DHT22;8310;44.626;11.176;2023-04-24T12:06:39;24.20;59.30
16402;DHT22;8310;44.626;11.176;2023-04-24T12:09:07;24.30;58.90
16402;DHT22;8310;44.626;11.176;2023-04-24T12:11:52;24.40;59.00
16402;DHT22;8310;44.626;11.176;2023-04-24T12:14:20;24.50;59.10
16402;DHT22;8310;44.626;11.176;2023-04-24T12:16:48;24.50;58.60
16402;DHT22;8310;44.626;11.176;2023-04-24T12:19:20;24.50;58.40
16402;DHT22;8310;44.626;11.176;2023-04-24T12:21:59;24.50;58.80
16402;DHT22;8310;44.626;11.176;2023-04-24T12:24:27;24.60;59.00
16402;DHT22;8310;44.626;11.176;2023-04-24T12:26:55;24.60;59.00
16402;DHT22;8310;44.626;11.176;2023-04-24T12:29:23;24.70;58.80
16402;DHT22;8310;44.626;11.176;2023-04-24T12:31:51;24.70;58.70
16402;DHT22;8310;44.626;11.176;2023-04-24T12:34:22;24.70;58.80
16402;DHT22;8310;44.626;11.176;2023-04-24T12:36:50;24.80;59.00
16402;DHT22;8310;44.626;11.176;2023-04-24T12:39:18;24.90;59.20
16402;DHT22;8310;44.626;11.176;2023-04-24T12:41:55;25.00;59.30
16402;DHT22;8310;44.626;11.176;2023-04-24T12:44:30;25.00;58.90
16402;DHT22;8310;44.626;11.176;2023-04-24T12:47:00;25.10;58.60
16402;DHT22;8310;44.626;11.176;2023-04-24T12:49:30;25.10;58.90
16402;DHT22;8310;44.626;11.176;2023-04-24T12:51:58;25.10;59.00
16402;DHT22;8310;44.626;11.176;2023-04-24T12:54:26;25.20;59.00
16402;DHT22;8310;44.626;11.176;2023-04-24T12:56:59;25.20;58.80
16402;DHT22;8310;44.626;11.176;2023-04-24T12:59:26;25.30;59.00
16402;DHT22;8310;44.626;11.176;2023-04-24T13:01:54;25.30;59.10
16402;DHT22;8310;44.626;11.176;2023-04-24T13:04:21;25.40;58.80
16402;DHT22;8310;44.626;11.176;2023-04-24T13:06:50;25.50;58.70
16402;DHT22;8310;44.626;11.176;2023-04-24T13:09:17;25.50;58.90
16402;DHT22;8310;44.626;11.176;2023-04-24T13:11:45;25.50;59.10
16402;DHT22;8310;44.626;11.176;2023-04-24T13:14:12;25.60;59.20
16402;DHT22;8310;44.626;11.176;2023-04-24T13:16:40;25.70;59.00
16402;DHT22;8310;44.626;11.176;2023-04-24T13:19:07;25.80;59.10
16402;DHT22;8310;44.626;11.176;2023-04-24T13:21:35;25.90;59.10
16402;DHT22;8310;44.626;11.176;2023-04-24T13:24:03;26.00;59.30
16402;DHT22;8310;44.626;11.176;2023-04-24T13:26:33;26.10;59.30
16402;DHT22;8310;44.626;11.176;2023-04-24T13:29:00;26.20;59.40
16402;DHT22;8310;44.626;11.176;2023-04-24T13:31:27;26.30;59.30
16402;DHT22;8310;44.626;11.176;2023-04-24T13:33:54;26.30;59.60
16402;DHT22;8310;44.626;11.176;2023-04-24T13:36:21;26.40;59.20
16402;DHT22;8310;44.626;11.176;2023-04-24T13:38:49;26.40;58.90
16402;DHT22;8310;44.626;11.176;2023-04-24T13:41:18;26.40;58.80
16402;DHT22;8310;44.626;11.176;2023-04-24T13:43:45;26.40;58.70
16402;DHT22;8310;44.626;11.176;2023-04-24T13:46:12;26.40;58.60
16402;DHT22;8310;44.626;11.176;2023-04-24T13:48:39;26.40;58.30
16402;DHT22;8310;44.626;11.176;2023-04-24T13:51:07;26.30;57.80
16402;DHT22;8310;44.626;11.176;2023-04-24T13:53:34;26.30;57.40
16402;DHT22;8310;44.626;11.176;2023-04-24T13:56:03;26.20;57.60
16402;DHT22;8310;44.626;11.176;2023-04-24T13:58:32;26.10;56.80
16402;DHT22;8310;44.626;11.176;2023-04-24T14:00:59;26.10;57.70
16402;DHT22;8310;44.626;11.176;2023-04-24T14:03:27;26.00;56.10
16402;DHT22;8310;44.626;11.176;2023-04-24T14:06:03;26.00;57.50
16402;DHT22;8310;44.626;11.176;2023-04-24T14:08:33;26.00;58.00
16402;DHT22;8310;44.626;11.176;2023-04-24T14:11:00;26.10;57.90
16402;DHT22;8310;44.626;11.176;2023-04-24T14:13:28;26.20;58.30
16402;DHT22;8310;44.626;11.176;2023-04-24T14:15:57;26.30;58.50
16402;DHT22;8310;44.626;11.176;2023-04-24T14:18:25;26.40;58.40
16402;DHT22;8310;44.626;11.176;2023-04-24T14:20:56;26.40;58.30
16402;DHT22;8310;44.626;11.176;2023-04-24T14:23:24;26.50;58.50
16402;DHT22;8310;44.626;11.176;2023-04-24T14:25:51;26.60;58.60
16402;DHT22;8310;44.626;11.176;2023-04-24T14:28:18;26.70;58.60
16402;DHT22;8310;44.626;11.176;2023-04-24T14:30:46;26.80;58.40
16402;DHT22;8310;44.626;11.176;2023-04-24T14:33:15;26.80;58.40
16402;DHT22;8310;44.626;11.176;2023-04-24T14:35:42;26.80;58.30
16402;DHT22;8310;44.626;11.176;2023-04-24T14:38:09;26.90;58.20
16402;DHT22;8310;44.626;11.176;2023-04-24T14:40:37;26.90;57.70
16402;DHT22;8310;44.626;11.176;2023-04-24T14:43:04;26.90;57.90
16402;DHT22;8310;44.626;11.176;2023-04-24T14:45:32;26.80;57.80
16402;DHT22;8310;44.626;11.176;2023-04-24T14:48:00;26.70;57.80
16402;DHT22;8310;44.626;11.176;2023-04-24T14:50:29;26.70;57.20
16402;DHT22;8310;44.626;11.176;2023-04-24T14:52:56;26.70;55.60
16402;DHT22;8310;44.626;11.176;2023-04-24T14:55:24;26.70;57.30
16402;DHT22;8310;44.626;11.176;2023-04-24T14:57:54;26.70;57.60
16402;DHT22;8310;44.626;11.176;2023-04-24T15:00:22;26.70;57.80
16402;DHT22;8310;44.626;11.176;2023-04-24T15:02:49;26.70;57.60
16402;DHT22;8310;44.626;11.176;2023-04-24T15:05:17;26.70;57.50
16402;DHT22;8310;44.626;11.176;2023-04-24T15:07:46;26.70;57.60
16402;DHT22;8310;44.626;11.176;2023-04-24T15:10:13;26.70;57.80
16402;DHT22;8310;44.626;11.176;2023-04-24T15:12:40;26.70;57.80
16402;DHT22;8310;44.626;11.176;2023-04-24T15:15:08;26.80;57.90
16402;DHT22;8310;44.626;11.176;2023-04-24T15:17:35;26.80;57.90
16402;DHT22;8310;44.626;11.176;2023-04-24T15:20:03;26.90;57.90
16402;DHT22;8310;44.626;11.176;2023-04-24T15:22:31;26.90;57.60
16402;DHT22;8310;44.626;11.176;2023-04-24T15:25:01;26.90;57.50
16402;DHT22;8310;44.626;11.176;2023-04-24T15:27:33;26.90;57.40
16402;DHT22;8310;44.626;11.176;2023-04-24T15:30:05;26.80;57.20
16402;DHT22;8310;44.626;11.176;2023-04-24T15:32:33;26.70;57.00
16402;DHT22;8310;44.626;11.176;2023-04-24T15:35:00;26.60;56.80
16402;DHT22;8310;44.626;11.176;2023-04-24T15:37:27;26.40;56.70